sensor_id;sensor_type;location;lat;lon;timestamp;temperature;humidity
16289;DHT22;26089;43.538;5.250;2023-02-20T00:02:15;8.00;99.90
16289;DHT22;26089;43.538;5.250;2023-02-20T00:04:46;7.80;99.90
16289;DHT22;26089;43.538;5.250;2023-02-20T00:07:13;8.00;99.90
16289;DHT22;26089;43.538;5.250;2023-02-20T00:09:40;7.90;99.90
16289;DHT22;26089;43.538;5.250;2023-02-20T00:12:07;7.90;99.90
16289;DHT22;26089;43.538;5.250;2023-02-20T00:14:33;7.50;99.90
16289;DHT22;26089;43.538;5.250;2023-02-20T00:17:00;7.90;99.90
16289;DHT22;26089;43.538;5.250;2023-02-20T00:19:27;7.80;99.90
16289;DHT22;26089;43.538;5.250;2023-02-20T00:21:56;7.80;99.90
16289;DHT22;26089;43.538;5.250;2023-02-20T00:24:23;7.80;99.90
16289;DHT22;26089;43.538;5.250;2023-02-20T00:26:51;7.70;99.90
16289;DHT22;26089;43.538;5.250;2023-02-20T00:29:20;7.70;99.90
16289;DHT22;26089;43.538;5.250;2023-02-20T00:31:50;7.20;99.90
16289;DHT22;26089;43.538;5.250;2023-02-20T00:34:18;7.50;99.90
16289;DHT22;26089;43.538;5.250;2023-02-20T00:36:45;7.60;99.90
16289;DHT22;26089;43.538;5.250;2023-02-20T00:39:14;7.60;99.90
16289;DHT22;26089;43.538;5.250;2023-02-20T00:41:41;7.60;99.90
16289;DHT22;26089;43.538;5.250;2023-02-20T00:44:08;7.50;99.90
16289;DHT22;26089;43.538;5.250;2023-02-20T00:46:35;6.90;99.90
16289;DHT22;26089;43.538;5.250;2023-02-20T00:49:02;7.70;99.90
16289;DHT22;26089;43.538;5.250;2023-02-20T00:51:29;7.20;99.90
16289;DHT22;26089;43.538;5.250;2023-02-20T00:53:58;7.50;99.90
16289;DHT22;26089;43.538;5.250;2023-02-20T00:56:26;7.40;99.90
16289;DHT22;26089;43.538;5.250;2023-02-20T00:58:54;7.30;99.90
16289;DHT22;26089;43.538;5.250;2023-02-20T01:01:21;7.30;99.90
16289;DHT22;26089;43.538;5.250;2023-02-20T01:03:48;7.90;99.90
16289;DHT22;26089;43.538;5.250;2023-02-20T01:06:15;7.30;99.90
16289;DHT22;26089;43.538;5.250;2023-02-20T01:08:42;7.20;99.90
16289;DHT22;26089;43.538;5.250;2023-02-20T01:11:09;7.30;99.90
16289;DHT22;26089;43.538;5.250;2023-02-20T01:13:37;7.30;99.90
16289;DHT22;26089;43.538;5.250;2023-02-20T01:16:05;7.50;99.90
16289;DHT22;26089;43.538;5.250;2023-02-20T01:18:32;7.20;99.90
16289;DHT22;26089;43.538;5.250;2023-02-20T01:20:59;7.20;99.90
16289;DHT22;26089;43.538;5.250;2023-02-20T01:23:26;7.10;99.90
16289;DHT22;26089;43.538;5.250;2023-02-20T01:25:53;7.10;99.90
16289;DHT22;26089;43.538;5.250;2023-02-20T01:28:20;7.10;99.90
16289;DHT22;26089;43.538;5.250;2023-02-20T01:30:48;7.30;99.90
16289;DHT22;26089;43.538;5.250;2023-02-20T01:33:15;7.20;99.90
16289;DHT22;26089;43.538;5.250;2023-02-20T01:35:42;7.20;99.90
16289;DHT22;26089;43.538;5.250;2023-02-20T01:38:09;7.20;99.90
16289;DHT22;26089;43.538;5.250;2023-02-20T01:40:36;7.30;99.90
16289;DHT22;26089;43.538;5.250;2023-02-20T01:43:03;7.20;99.90
16289;DHT22;26089;43.538;5.250;2023-02-20T01:45:35;7.20;99.90
16289;DHT22;26089;43.538;5.250;2023-02-20T01:48:04;7.00;99.90
16289;DHT22;26089;43.538;5.250;2023-02-20T01:50:35;7.00;99.90
16289;DHT22;26089;43.538;5.250;2023-02-20T01:53:07;7.30;99.90
16289;DHT22;26089;43.538;5.250;2023-02-20T01:55:38;6.90;99.90
16289;DHT22;26089;43.538;5.250;2023-02-20T01:58:09;6.80;99.90
16289;DHT22;26089;43.538;5.250;2023-02-20T02:00:38;7.60;99.90
16289;DHT22;26089;43.538;5.250;2023-02-20T02:03:11;7.00;99.90
16289;DHT22;26089;43.538;5.250;2023-02-20T02:05:40;6.70;99.90
16289;DHT22;26089;43.538;5.250;2023-02-20T02:08:10;7.50;99.90
16289;DHT22;26089;43.538;5.250;2023-02-20T02:10:45;7.00;99.90
16289;DHT22;26089;43.538;5.250;2023-02-20T02:13:14;7.00;99.90
16289;DHT22;26089;43.538;5.250;2023-02-20T02:15:41;7.00;99.90
16289;DHT22;26089;43.538;5.250;2023-02-20T02:21:44;7.00;99.90
16289;DHT22;26089;43.538;5.250;2023-02-20T02:24:40;6.90;99.90
16289;DHT22;26089;43.538;5.250;2023-02-20T02:27:41;6.90;99.90
16289;DHT22;26089;43.538;5.250;2023-02-20T02:36:55;6.80;99.90
16289;DHT22;26089;43.538;5.250;2023-02-20T02:39:34;6.80;99.90
16289;DHT22;26089;43.538;5.250;2023-02-20T02:42:09;6.60;99.90
16289;DHT22;26089;43.538;5.250;2023-02-20T02:44:43;6.80;99.90
16289;DHT22;26089;43.538;5.250;2023-02-20T02:47:15;6.80;99.90
16289;DHT22;26089;43.538;5.250;2023-02-20T02:49:48;6.70;99.90
16289;DHT22;26089;43.538;5.250;2023-02-20T02:52:20;6.70;99.90
16289;DHT22;26089;43.538;5.250;2023-02-20T02:55:01;6.70;99.90
16289;DHT22;26089;43.538;5.250;2023-02-20T02:57:28;6.70;99.90
16289;DHT22;26089;43.538;5.250;2023-02-20T02:59:58;6.70;99.90
16289;DHT22;26089;43.538;5.250;2023-02-20T03:02:29;6.70;99.90
16289;DHT22;26089;43.538;5.250;2023-02-20T03:04:57;6.70;99.90
16289;DHT22;26089;43.538;5.250;2023-02-20T03:07:28;6.60;99.90
16289;DHT22;26089;43.538;5.250;2023-02-20T03:10:00;6.60;99.90
16289;DHT22;26089;43.538;5.250;2023-02-20T03:12:29;6.50;99.90
16289;DHT22;26089;43.538;5.250;2023-02-20T03:14:59;6.60;99.90
16289;DHT22;26089;43.538;5.250;2023-02-20T03:17:48;6.60;99.90
16289;DHT22;26089;43.538;5.250;2023-02-20T03:20:19;5.30;99.90
16289;DHT22;26089;43.538;5.250;2023-02-20T03:22:51;6.50;99.90
16289;DHT22;26089;43.538;5.250;2023-02-20T03:25:22;6.40;99.90
16289;DHT22;26089;43.538;5.250;2023-02-20T03:27:57;6.50;99.90
16289;DHT22;26089;43.538;5.250;2023-02-20T03:30:29;6.50;99.90
16289;DHT22;26089;43.538;5.250;2023-02-20T03:33:03;7.40;99.90
16289;DHT22;26089;43.538;5.250;2023-02-20T03:35:50;6.50;99.90
16289;DHT22;26089;43.538;5.250;2023-02-20T03:38:40;6.50;99.90
16289;DHT22;26089;43.538;5.250;2023-02-20T03:41:27;6.60;99.90
16289;DHT22;26089;43.538;5.250;2023-02-20T03:44:14;6.60;99.90
16289;DHT22;26089;43.538;5.250;2023-02-20T03:46:44;6.60;99.90
16289;DHT22;26089;43.538;5.250;2023-02-20T03:49:14;6.40;99.90
16289;DHT22;26089;43.538;5.250;2023-02-20T03:51:42;6.40;99.90
16289;DHT22;26089;43.538;5.250;2023-02-20T03:54:11;6.30;99.90
16289;DHT22;26089;43.538;5.250;2023-02-20T03:56:41;6.20;99.90
16289;DHT22;26089;43.538;5.250;2023-02-20T03:59:12;6.20;99.90
16289;DHT22;26089;43.538;5.250;2023-02-20T04:01:41;6.30;99.90
16289;DHT22;26089;43.538;5.250;2023-02-20T04:04:13;5.70;99.90
16289;DHT22;26089;43.538;5.250;2023-02-20T04:06:43;6.30;99.90
16289;DHT22;26089;43.538;5.250;2023-02-20T04:09:18;6.20;99.90
16289;DHT22;26089;43.538;5.250;2023-02-20T04:11:50;6.20;99.90
16289;DHT22;26089;43.538;5.250;2023-02-20T04:14:20;6.20;99.90
16289;DHT22;26089;43.538;5.250;2023-02-20T04:16:50;5.90;99.90
16289;DHT22;26089;43.538;5.250;2023-02-20T04:19:18;5.80;99.90
16289;DHT22;26089;43.538;5.250;2023-02-20T04:21:48;6.10;99.90
16289;DHT22;26089;43.538;5.250;2023-02-20T04:24:22;6.50;99.90
16289;DHT22;26089;43.538;5.250;2023-02-20T04:26:51;6.20;99.90
16289;DHT22;26089;43.538;5.250;2023-02-20T04:29:18;6.10;99.90
16289;DHT22;26089;43.538;5.250;2023-02-20T04:31:45;6.20;99.90
16289;DHT22;26089;43.538;5.250;2023-02-20T04:34:12;6.10;99.90
16289;DHT22;26089;43.538;5.250;2023-02-20T04:36:39;6.40;99.90
16289;DHT22;26089;43.538;5.250;2023-02-20T04:39:06;6.20;99.90
16289;DHT22;26089;43.538;5.250;2023-02-20T04:41:35;6.10;99.90
16289;DHT22;26089;43.538;5.250;2023-02-20T04:44:02;6.20;99.90
16289;DHT22;26089;43.538;5.250;2023-02-20T04:46:46;6.20;99.90
16289;DHT22;26089;43.538;5.250;2023-02-20T04:49:13;6.10;99.90
16289;DHT22;26089;43.538;5.250;2023-02-20T04:51:40;5.60;99.90
16289;DHT22;26089;43.538;5.250;2023-02-20T04:54:07;6.20;99.90
16289;DHT22;26089;43.538;5.250;2023-02-20T04:56:35;6.20;99.90
16289;DHT22;26089;43.538;5.250;2023-02-20T04:59:02;6.30;99.90
16289;DHT22;26089;43.538;5.250;2023-02-20T05:01:29;6.20;99.90
16289;DHT22;26089;43.538;5.250;2023-02-20T05:03:56;6.20;99.90
16289;DHT22;26089;43.538;5.250;2023-02-20T05:06:23;6.20;99.90
16289;DHT22;26089;43.538;5.250;2023-02-20T05:08:50;6.70;99.90
16289;DHT22;26089;43.538;5.250;2023-02-20T05:11:17;7.30;99.90
16289;DHT22;26089;43.538;5.250;2023-02-20T05:13:46;6.20;99.90
16289;DHT22;26089;43.538;5.250;2023-02-20T05:16:13;6.20;99.90
16289;DHT22;26089;43.538;5.250;2023-02-20T05:18:40;4.90;99.90
16289;DHT22;26089;43.538;5.250;2023-02-20T05:21:07;6.20;99.90
16289;DHT22;26089;43.538;5.250;2023-02-20T05:23:56;6.30;99.90
16289;DHT22;26089;43.538;5.250;2023-02-20T05:26:23;6.30;99.90
16289;DHT22;26089;43.538;5.250;2023-02-20T05:28:51;6.30;99.90
16289;DHT22;26089;43.538;5.250;2023-02-20T05:31:18;6.30;99.90
16289;DHT22;26089;43.538;5.250;2023-02-20T05:33:45;6.40;99.90
16289;DHT22;26089;43.538;5.250;2023-02-20T05:36:12;6.40;99.90
16289;DHT22;26089;43.538;5.250;2023-02-20T05:38:39;6.40;99.90
16289;DHT22;26089;43.538;5.250;2023-02-20T05:41:13;6.50;99.90
16289;DHT22;26089;43.538;5.250;2023-02-20T05:43:40;6.50;99.90
16289;DHT22;26089;43.538;5.250;2023-02-20T05:46:08;6.20;99.90
16289;DHT22;26089;43.538;5.250;2023-02-20T05:48:35;5.90;99.90
16289;DHT22;26089;43.538;5.250;2023-02-20T05:51:02;6.50;99.90
16289;DHT22;26089;43.538;5.250;2023-02-20T05:53:30;6.30;99.90
16289;DHT22;26089;43.538;5.250;2023-02-20T05:55:57;6.50;99.90
16289;DHT22;26089;43.538;5.250;2023-02-20T05:58:24;6.50;99.90
16289;DHT22;26089;43.538;5.250;2023-02-20T06:00:51;6.40;99.90
16289;DHT22;26089;43.538;5.250;2023-02-20T06:03:20;7.20;99.90
16289;DHT22;26089;43.538;5.250;2023-02-20T06:05:47;6.40;99.90
16289;DHT22;26089;43.538;5.250;2023-02-20T06:08:14;6.40;99.90
16289;DHT22;26089;43.538;5.250;2023-02-20T06:10:41;6.40;99.90
16289;DHT22;26089;43.538;5.250;2023-02-20T06:13:08;6.20;99.90
16289;DHT22;26089;43.538;5.250;2023-02-20T06:15:35;6.40;99.90
16289;DHT22;26089;43.538;5.250;2023-02-20T06:18:02;6.40;99.90
16289;DHT22;26089;43.538;5.250;2023-02-20T06:20:30;7.00;99.90
16289;DHT22;26089;43.538;5.250;2023-02-20T06:22:57;6.40;99.90
16289;DHT22;26089;43.538;5.250;2023-02-20T06:25:24;6.50;99.90
16289;DHT22;26089;43.538;5.250;2023-02-20T06:27:51;6.40;99.90
16289;DHT22;26089;43.538;5.250;2023-02-20T06:30:19;6.30;99.90
16289;DHT22;26089;43.538;5.250;2023-02-20T06:32:46;6.40;99.90
16289;DHT22;26089;43.538;5.250;2023-02-20T06:35:13;6.80;99.90
16289;DHT22;26089;43.538;5.250;2023-02-20T06:37:42;6.40;99.90
16289;DHT22;26089;43.538;5.250;2023-02-20T06:40:10;6.40;99.90
16289;DHT22;26089;43.538;5.250;2023-02-20T06:42:37;6.40;99.90
16289;DHT22;26089;43.538;5.250;2023-02-20T06:45:04;6.30;99.90
16289;DHT22;26089;43.538;5.250;2023-02-20T06:47:31;6.30;99.90
16289;DHT22;26089;43.538;5.250;2023-02-20T06:49:58;6.30;99.90
16289;DHT22;26089;43.538;5.250;2023-02-20T06:52:25;6.30;99.90
16289;DHT22;26089;43.538;5.250;2023-02-20T06:54:54;6.40;99.90
16289;DHT22;26089;43.538;5.250;2023-02-20T06:57:21;6.50;99.90
16289;DHT22;26089;43.538;5.250;2023-02-20T06:59:48;6.30;99.90
16289;DHT22;26089;43.538;5.250;2023-02-20T07:02:15;7.10;99.90
16289;DHT22;26089;43.538;5.250;2023-02-20T07:04:46;6.70;99.90
16289;DHT22;26089;43.538;5.250;2023-02-20T07:07:14;6.60;99.90
16289;DHT22;26089;43.538;5.250;2023-02-20T07:09:41;6.60;99.90
16289;DHT22;26089;43.538;5.250;2023-02-20T07:12:09;6.70;99.90
16289;DHT22;26089;43.538;5.250;2023-02-20T07:14:36;6.70;99.90
16289;DHT22;26089;43.538;5.250;2023-02-20T07:17:03;6.80;99.90
16289;DHT22;26089;43.538;5.250;2023-02-20T07:19:30;6.80;99.90
16289;DHT22;26089;43.538;5.250;2023-02-20T07:21:57;7.40;99.90
16289;DHT22;26089;43.538;5.250;2023-02-20T07:24:24;7.10;99.90
16289;DHT22;26089;43.538;5.250;2023-02-20T07:26:51;7.20;99.90
16289;DHT22;26089;43.538;5.250;2023-02-20T07:29:19;7.30;99.90
16289;DHT22;26089;43.538;5.250;2023-02-20T07:31:46;7.60;99.90
16289;DHT22;26089;43.538;5.250;2023-02-20T07:34:13;7.50;99.90
16289;DHT22;26089;43.538;5.250;2023-02-20T07:36:40;7.50;99.90
16289;DHT22;26089;43.538;5.250;2023-02-20T07:39:09;7.60;99.90
16289;DHT22;26089;43.538;5.250;2023-02-20T07:41:36;7.70;99.90
16289;DHT22;26089;43.538;5.250;2023-02-20T07:44:04;7.70;99.90
16289;DHT22;26089;43.538;5.250;2023-02-20T07:46:32;7.80;99.90
16289;DHT22;26089;43.538;5.250;2023-02-20T07:49:00;7.50;99.90
16289;DHT22;26089;43.538;5.250;2023-02-20T07:51:27;8.10;99.90
16289;DHT22;26089;43.538;5.250;2023-02-20T07:53:54;8.70;99.90
16289;DHT22;26089;43.538;5.250;2023-02-20T07:56:22;8.30;99.90
16289;DHT22;26089;43.538;5.250;2023-02-20T07:58:50;8.50;99.90
16289;DHT22;26089;43.538;5.250;2023-02-20T08:01:17;8.80;99.90
16289;DHT22;26089;43.538;5.250;2023-02-20T08:03:46;9.00;99.90
16289;DHT22;26089;43.538;5.250;2023-02-20T08:06:15;9.30;99.90
16289;DHT22;26089;43.538;5.250;2023-02-20T08:08:42;10.00;99.90
16289;DHT22;26089;43.538;5.250;2023-02-20T08:11:12;10.60;99.90
16289;DHT22;26089;43.538;5.250;2023-02-20T08:13:41;11.50;99.90
16289;DHT22;26089;43.538;5.250;2023-02-20T08:16:08;12.30;99.90
16289;DHT22;26089;43.538;5.250;2023-02-20T08:18:35;12.70;99.90
16289;DHT22;26089;43.538;5.250;2023-02-20T08:21:03;13.30;99.90
16289;DHT22;26089;43.538;5.250;2023-02-20T08:23:30;14.10;99.90
16289;DHT22;26089;43.538;5.250;2023-02-20T08:25:57;15.00;99.90
16289;DHT22;26089;43.538;5.250;2023-02-20T08:28:25;15.80;99.90
16289;DHT22;26089;43.538;5.250;2023-02-20T08:30:52;16.40;99.90
16289;DHT22;26089;43.538;5.250;2023-02-20T08:33:19;17.30;99.90
16289;DHT22;26089;43.538;5.250;2023-02-20T08:35:46;17.60;99.90
16289;DHT22;26089;43.538;5.250;2023-02-20T08:38:26;18.10;99.90
16289;DHT22;26089;43.538;5.250;2023-02-20T08:40:53;18.40;99.90
16289;DHT22;26089;43.538;5.250;2023-02-20T08:43:20;18.40;99.90
16289;DHT22;26089;43.538;5.250;2023-02-20T08:45:48;18.70;99.90
16289;DHT22;26089;43.538;5.250;2023-02-20T08:48:15;19.10;99.90
16289;DHT22;26089;43.538;5.250;2023-02-20T08:50:43;19.20;99.90
16289;DHT22;26089;43.538;5.250;2023-02-20T08:53:11;19.30;99.90
16289;DHT22;26089;43.538;5.250;2023-02-20T08:55:40;19.60;99.90
16289;DHT22;26089;43.538;5.250;2023-02-20T08:58:07;19.70;99.90
16289;DHT22;26089;43.538;5.250;2023-02-20T09:00:34;19.80;99.90
16289;DHT22;26089;43.538;5.250;2023-02-20T09:03:01;19.80;99.90
16289;DHT22;26089;43.538;5.250;2023-02-20T09:05:32;19.70;99.90
16289;DHT22;26089;43.538;5.250;2023-02-20T09:07:59;19.50;99.90
16289;DHT22;26089;43.538;5.250;2023-02-20T09:10:26;19.20;99.90
16289;DHT22;26089;43.538;5.250;2023-02-20T09:12:55;19.00;99.90
16289;DHT22;26089;43.538;5.250;2023-02-20T09:15:22;18.00;99.90
16289;DHT22;26089;43.538;5.250;2023-02-20T09:17:50;17.00;99.90
16289;DHT22;26089;43.538;5.250;2023-02-20T09:20:19;16.20;99.90
16289;DHT22;26089;43.538;5.250;2023-02-20T09:22:46;15.70;99.90
16289;DHT22;26089;43.538;5.250;2023-02-20T09:25:14;15.50;99.90
16289;DHT22;26089;43.538;5.250;2023-02-20T09:27:41;15.30;99.90
16289;DHT22;26089;43.538;5.250;2023-02-20T09:30:13;15.10;99.90
16289;DHT22;26089;43.538;5.250;2023-02-20T09:32:41;14.90;99.90
16289;DHT22;26089;43.538;5.250;2023-02-20T09:35:12;14.80;99.90
16289;DHT22;26089;43.538;5.250;2023-02-20T09:37:40;14.60;99.90
16289;DHT22;26089;43.538;5.250;2023-02-20T09:40:09;14.60;99.90
16289;DHT22;26089;43.538;5.250;2023-02-20T09:42:41;14.70;99.90
16289;DHT22;26089;43.538;5.250;2023-02-20T09:45:13;14.70;99.90
16289;DHT22;26089;43.538;5.250;2023-02-20T09:47:52;14.60;99.90
16289;DHT22;26089;43.538;5.250;2023-02-20T09:50:28;14.60;99.90
16289;DHT22;26089;43.538;5.250;2023-02-20T09:53:01;14.50;99.90
16289;DHT22;26089;43.538;5.250;2023-02-20T09:55:35;14.50;99.90
16289;DHT22;26089;43.538;5.250;2023-02-20T09:58:04;14.40;99.90
16289;DHT22;26089;43.538;5.250;2023-02-20T10:00:35;14.50;99.90
16289;DHT22;26089;43.538;5.250;2023-02-20T10:03:12;14.50;99.90
16289;DHT22;26089;43.538;5.250;2023-02-20T10:05:42;14.60;99.90
16289;DHT22;26089;43.538;5.250;2023-02-20T10:08:18;14.70;99.90
16289;DHT22;26089;43.538;5.250;2023-02-20T10:10:48;14.90;99.90
16289;DHT22;26089;43.538;5.250;2023-02-20T10:13:28;15.00;99.90
16289;DHT22;26089;43.538;5.250;2023-02-20T10:16:02;15.10;99.90
16289;DHT22;26089;43.538;5.250;2023-02-20T10:18:39;15.30;99.90
16289;DHT22;26089;43.538;5.250;2023-02-20T10:21:15;15.50;99.90
16289;DHT22;26089;43.538;5.250;2023-02-20T10:23:47;15.40;99.90
16289;DHT22;26089;43.538;5.250;2023-02-20T10:26:19;15.60;99.90
16289;DHT22;26089;43.538;5.250;2023-02-20T10:28:48;15.90;99.90
16289;DHT22;26089;43.538;5.250;2023-02-20T10:31:27;16.20;99.90
16289;DHT22;26089;43.538;5.250;2023-02-20T10:34:00;16.40;99.90
16289;DHT22;26089;43.538;5.250;2023-02-20T10:36:35;16.50;99.90
16289;DHT22;26089;43.538;5.250;2023-02-20T10:39:06;16.80;99.90
16289;DHT22;26089;43.538;5.250;2023-02-20T10:41:39;17.10;99.90
16289;DHT22;26089;43.538;5.250;2023-02-20T10:44:14;17.30;99.90
16289;DHT22;26089;43.538;5.250;2023-02-20T10:46:50;17.50;99.90
16289;DHT22;26089;43.538;5.250;2023-02-20T10:49:23;17.90;99.90
16289;DHT22;26089;43.538;5.250;2023-02-20T10:51:57;18.10;99.90
16289;DHT22;26089;43.538;5.250;2023-02-20T10:54:30;18.40;99.90
16289;DHT22;26089;43.538;5.250;2023-02-20T10:57:04;18.60;99.90
16289;DHT22;26089;43.538;5.250;2023-02-20T10:59:37;19.00;99.90
16289;DHT22;26089;43.538;5.250;2023-02-20T11:02:14;19.40;99.90
16289;DHT22;26089;43.538;5.250;2023-02-20T11:04:47;19.50;99.90
16289;DHT22;26089;43.538;5.250;2023-02-20T11:07:16;19.70;99.90
16289;DHT22;26089;43.538;5.250;2023-02-20T11:09:44;19.70;99.90
16289;DHT22;26089;43.538;5.250;2023-02-20T11:12:21;19.70;99.90
16289;DHT22;26089;43.538;5.250;2023-02-20T11:14:53;19.60;99.90
16289;DHT22;26089;43.538;5.250;2023-02-20T11:17:24;19.40;99.90
16289;DHT22;26089;43.538;5.250;2023-02-20T11:19:55;18.90;99.90
16289;DHT22;26089;43.538;5.250;2023-02-20T11:22:39;18.80;99.90
16289;DHT22;26089;43.538;5.250;2023-02-20T11:25:16;18.70;99.90
16289;DHT22;26089;43.538;5.250;2023-02-20T11:27:45;18.70;99.90
16289;DHT22;26089;43.538;5.250;2023-02-20T11:30:23;18.90;99.90
16289;DHT22;26089;43.538;5.250;2023-02-20T11:33:01;19.20;99.90
16289;DHT22;26089;43.538;5.250;2023-02-20T11:35:32;19.80;99.90
16289;DHT22;26089;43.538;5.250;2023-02-20T11:38:31;20.30;99.90
16289;DHT22;26089;43.538;5.250;2023-02-20T11:41:09;20.40;99.90
16289;DHT22;26089;43.538;5.250;2023-02-20T11:43:39;20.80;99.90
16289;DHT22;26089;43.538;5.250;2023-02-20T11:46:12;21.20;99.90
16289;DHT22;26089;43.538;5.250;2023-02-20T11:48:58;21.40;99.90
16289;DHT22;26089;43.538;5.250;2023-02-20T11:51:34;21.60;99.90
16289;DHT22;26089;43.538;5.250;2023-02-20T11:54:11;21.60;99.90
16289;DHT22;26089;43.538;5.250;2023-02-20T11:56:53;21.70;99.90
16289;DHT22;26089;43.538;5.250;2023-02-20T11:59:33;21.70;99.90
16289;DHT22;26089;43.538;5.250;2023-02-20T12:02:22;22.00;99.90
16289;DHT22;26089;43.538;5.250;2023-02-20T12:05:11;22.30;99.90
16289;DHT22;26089;43.538;5.250;2023-02-20T12:07:43;22.30;99.90
16289;DHT22;26089;43.538;5.250;2023-02-20T12:10:28;22.20;99.90
16289;DHT22;26089;43.538;5.250;2023-02-20T12:12:57;22.00;99.90
16289;DHT22;26089;43.538;5.250;2023-02-20T12:15:26;22.10;99.90
16289;DHT22;26089;43.538;5.250;2023-02-20T12:21:22;22.60;99.90
16289;DHT22;26089;43.538;5.250;2023-02-20T12:24:08;22.70;99.90
16289;DHT22;26089;43.538;5.250;2023-02-20T12:26:51;22.90;99.90
16289;DHT22;26089;43.538;5.250;2023-02-20T12:29:37;23.00;99.90
16289;DHT22;26089;43.538;5.250;2023-02-20T12:32:29;23.50;99.90
16289;DHT22;26089;43.538;5.250;2023-02-20T12:35:12;23.90;99.90
16289;DHT22;26089;43.538;5.250;2023-02-20T12:37:50;24.10;99.90
16289;DHT22;26089;43.538;5.250;2023-02-20T12:40:36;23.90;99.90
16289;DHT22;26089;43.538;5.250;2023-02-20T12:43:19;24.00;99.90
16289;DHT22;26089;43.538;5.250;2023-02-20T12:45:56;23.60;99.90
16289;DHT22;26089;43.538;5.250;2023-02-20T12:48:32;23.30;99.90
16289;DHT22;26089;43.538;5.250;2023-02-20T12:51:13;23.20;99.90
16289;DHT22;26089;43.538;5.250;2023-02-20T12:53:56;23.40;99.90
16289;DHT22;26089;43.538;5.250;2023-02-20T12:56:37;23.00;99.90
16289;DHT22;26089;43.538;5.250;2023-02-20T12:59:17;23.10;99.90
16289;DHT22;26089;43.538;5.250;2023-02-20T13:01:49;23.20;99.90
16289;DHT22;26089;43.538;5.250;2023-02-20T13:04:24;23.30;99.90
16289;DHT22;26089;43.538;5.250;2023-02-20T13:06:59;23.20;99.90
16289;DHT22;26089;43.538;5.250;2023-02-20T13:09:32;23.50;99.90
16289;DHT22;26089;43.538;5.250;2023-02-20T13:12:05;23.50;99.90
16289;DHT22;26089;43.538;5.250;2023-02-20T13:14:41;23.50;99.90
16289;DHT22;26089;43.538;5.250;2023-02-20T13:17:24;22.90;99.90
16289;DHT22;26089;43.538;5.250;2023-02-20T13:19:57;22.80;99.90
16289;DHT22;26089;43.538;5.250;2023-02-20T13:22:26;22.90;99.90
16289;DHT22;26089;43.538;5.250;2023-02-20T13:25:33;22.60;99.90
16289;DHT22;26089;43.538;5.250;2023-02-20T13:28:01;22.60;99.90
16289;DHT22;26089;43.538;5.250;2023-02-20T13:30:33;22.60;99.90
16289;DHT22;26089;43.538;5.250;2023-02-20T13:33:17;22.10;99.90
16289;DHT22;26089;43.538;5.250;2023-02-20T13:35:50;22.00;99.90
16289;DHT22;26089;43.538;5.250;2023-02-20T13:38:19;21.90;99.90
16289;DHT22;26089;43.538;5.250;2023-02-20T13:41:04;22.10;99.90
16289;DHT22;26089;43.538;5.250;2023-02-20T13:43:32;21.70;99.90
16289;DHT22;26089;43.538;5.250;2023-02-20T13:46:15;21.60;99.90
16289;DHT22;26089;43.538;5.250;2023-02-20T13:48:48;21.80;99.90
16289;DHT22;26089;43.538;5.250;2023-02-20T13:51:30;21.80;99.90
16289;DHT22;26089;43.538;5.250;2023-02-20T13:54:05;21.70;99.90
16289;DHT22;26089;43.538;5.250;2023-02-20T13:56:45;21.70;99.90
16289;DHT22;26089;43.538;5.250;2023-02-20T13:59:16;21.50;99.90
16289;DHT22;26089;43.538;5.250;2023-02-20T14:01:54;21.40;99.90
16289;DHT22;26089;43.538;5.250;2023-02-20T14:04:22;21.30;99.90
16289;DHT22;26089;43.538;5.250;2023-02-20T14:06:49;21.20;99.90
16289;DHT22;26089;43.538;5.250;2023-02-20T14:09:20;21.00;99.90
16289;DHT22;26089;43.538;5.250;2023-02-20T14:11:50;21.00;99.90
16289;DHT22;26089;43.538;5.250;2023-02-20T14:14:27;21.00;99.90
16289;DHT22;26089;43.538;5.250;2023-02-20T14:17:07;21.10;99.90
16289;DHT22;26089;43.538;5.250;2023-02-20T14:19:39;21.10;99.90
16289;DHT22;26089;43.538;5.250;2023-02-20T14:22:28;21.10;99.90
16289;DHT22;26089;43.538;5.250;2023-02-20T14:28:05;20.50;99.90
16289;DHT22;26089;43.538;5.250;2023-02-20T14:30:32;20.30;99.90
16289;DHT22;26089;43.538;5.250;2023-02-20T14:33:00;20.20;99.90
16289;DHT22;26089;43.538;5.250;2023-02-20T14:35:48;20.10;99.90
16289;DHT22;26089;43.538;5.250;2023-02-20T14:38:25;20.10;99.90
16289;DHT22;26089;43.538;5.250;2023-02-20T14:40:56;20.00;99.90
16289;DHT22;26089;43.538;5.250;2023-02-20T14:43:26;19.60;99.90
16289;DHT22;26089;43.538;5.250;2023-02-20T14:45:59;19.40;99.90
16289;DHT22;26089;43.538;5.250;2023-02-20T14:48:29;19.30;99.90
16289;DHT22;26089;43.538;5.250;2023-02-20T14:51:08;19.40;99.90
16289;DHT22;26089;43.538;5.250;2023-02-20T14:53:37;19.20;99.90
16289;DHT22;26089;43.538;5.250;2023-02-20T14:56:13;19.30;99.90
16289;DHT22;26089;43.538;5.250;2023-02-20T14:58:43;19.40;99.90
16289;DHT22;26089;43.538;5.250;2023-02-20T15:01:16;19.40;99.90
16289;DHT22;26089;43.538;5.250;2023-02-20T15:03:52;19.00;99.90
16289;DHT22;26089;43.538;5.250;2023-02-20T15:06:21;19.00;99.90
16289;DHT22;26089;43.538;5.250;2023-02-20T15:08:55;18.80;99.90
16289;DHT22;26089;43.538;5.250;2023-02-20T15:11:23;18.80;99.90
16289;DHT22;26089;43.538;5.250;2023-02-20T15:13:52;18.80;99.90
16289;DHT22;26089;43.538;5.250;2023-02-20T15:16:21;18.80;99.90
16289;DHT22;26089;43.538;5.250;2023-02-20T15:18:49;18.70;99.90
16289;DHT22;26089;43.538;5.250;2023-02-20T15:21:30;18.60;99.90
16289;DHT22;26089;43.538;5.250;2023-02-20T15:24:11;18.50;99.90
16289;DHT22;26089;43.538;5.250;2023-02-20T15:26:39;18.30;99.90
16289;DHT22;26089;43.538;5.250;2023-02-20T15:29:11;18.00;99.90
16289;DHT22;26089;43.538;5.250;2023-02-20T15:31:39;17.90;99.90
16289;DHT22;26089;43.538;5.250;2023-02-20T15:34:12;17.70;99.90
16289;DHT22;26089;43.538;5.250;2023-02-20T15:36:41;17.50;99.90
16289;DHT22;26089;43.538;5.250;2023-02-20T15:39:10;17.70;99.90
16289;DHT22;26089;43.538;5.250;2023-02-20T15:41:37;17.70;99.90
16289;DHT22;26089;43.538;5.250;2023-02-20T15:44:04;17.70;99.90
16289;DHT22;26089;43.538;5.250;2023-02-20T15:46:33;17.50;99.90
16289;DHT22;26089;43.538;5.250;2023-02-20T15:49:00;17.30;99.90
16289;DHT22;26089;43.538;5.250;2023-02-20T15:51:28;17.20;99.90
16289;DHT22;26089;43.538;5.250;2023-02-20T15:53:56;17.10;99.90
16289;DHT22;26089;43.538;5.250;2023-02-20T15:56:26;17.10;99.90
16289;DHT22;26089;43.538;5.250;2023-02-20T15:58:55;17.10;99.90
16289;DHT22;26089;43.538;5.250;2023-02-20T16:01:24;17.00;99.90
16289;DHT22;26089;43.538;5.250;2023-02-20T16:03:52;16.90;99.90
16289;DHT22;26089;43.538;5.250;2023-02-20T16:06:20;16.60;99.90
16289;DHT22;26089;43.538;5.250;2023-02-20T16:08:48;16.50;99.90
16289;DHT22;26089;43.538;5.250;2023-02-20T16:11:16;16.60;99.90
16289;DHT22;26089;43.538;5.250;2023-02-20T16:13:44;16.60;99.90
16289;DHT22;26089;43.538;5.250;2023-02-20T16:16:19;16.50;99.90
16289;DHT22;26089;43.538;5.250;2023-02-20T16:18:47;16.30;99.90
16289;DHT22;26089;43.538;5.250;2023-02-20T16:21:18;16.30;99.90